sensor_id;sensor_type;location;lat;lon;timestamp;P1;durP1;ratioP1;P2;durP2;ratioP2
13568;SDS011;6856;51.460;7.158;2023-06-10T00:00:38;3.85;;;3.17;;
13568;SDS011;6856;51.460;7.158;2023-06-10T00:03:13;3.83;;;3.30;;
13568;SDS011;6856;51.460;7.158;2023-06-10T00:05:49;3.80;;;3.17;;
13568;SDS011;6856;51.460;7.158;2023-06-10T00:08:23;4.10;;;3.35;;
13568;SDS011;6856;51.460;7.158;2023-06-10T00:10:57;3.55;;;3.22;;
13568;SDS011;6856;51.460;7.158;2023-06-10T00:13:32;3.90;;;3.45;;
13568;SDS011;6856;51.460;7.158;2023-06-10T00:16:07;4.20;;;3.20;;
13568;SDS011;6856;51.460;7.158;2023-06-10T00:18:41;4.80;;;3.60;;
13568;SDS011;6856;51.460;7.158;2023-06-10T00:21:23;4.15;;;3.28;;
13568;SDS011;6856;51.460;7.158;2023-06-10T00:23:57;3.75;;;3.13;;
13568;SDS011;6856;51.460;7.158;2023-06-10T00:26:35;3.83;;;3.13;;
13568;SDS011;6856;51.460;7.158;2023-06-10T00:29:10;4.20;;;3.60;;
13568;SDS011;6856;51.460;7.158;2023-06-10T00:31:45;3.90;;;3.50;;
13568;SDS011;6856;51.460;7.158;2023-06-10T00:34:21;3.80;;;3.40;;
13568;SDS011;6856;51.460;7.158;2023-06-10T00:36:57;3.95;;;3.55;;
13568;SDS011;6856;51.460;7.158;2023-06-10T00:39:31;3.85;;;3.30;;
13568;SDS011;6856;51.460;7.158;2023-06-10T00:42:06;4.15;;;3.45;;
13568;SDS011;6856;51.460;7.158;2023-06-10T00:44:42;4.65;;;3.53;;
13568;SDS011;6856;51.460;7.158;2023-06-10T00:47:15;5.05;;;4.00;;
13568;SDS011;6856;51.460;7.158;2023-06-10T00:49:51;4.00;;;3.58;;
13568;SDS011;6856;51.460;7.158;2023-06-10T00:52:28;4.53;;;3.38;;
13568;SDS011;6856;51.460;7.158;2023-06-10T00:55:02;4.82;;;3.83;;
13568;SDS011;6856;51.460;7.158;2023-06-10T00:57:40;4.68;;;4.00;;
13568;SDS011;6856;51.460;7.158;2023-06-10T01:00:16;4.35;;;3.40;;
13568;SDS011;6856;51.460;7.158;2023-06-10T01:02:52;5.55;;;3.88;;
13568;SDS011;6856;51.460;7.158;2023-06-10T01:05:28;4.63;;;3.72;;
13568;SDS011;6856;51.460;7.158;2023-06-10T01:08:09;4.22;;;3.35;;
13568;SDS011;6856;51.460;7.158;2023-06-10T01:10:55;4.15;;;3.70;;
13568;SDS011;6856;51.460;7.158;2023-06-10T01:13:34;4.10;;;3.70;;
13568;SDS011;6856;51.460;7.158;2023-06-10T01:16:12;4.28;;;3.55;;
13568;SDS011;6856;51.460;7.158;2023-06-10T01:18:48;6.50;;;3.85;;
13568;SDS011;6856;51.460;7.158;2023-06-10T01:21:25;4.85;;;4.10;;
13568;SDS011;6856;51.460;7.158;2023-06-10T01:23:59;4.20;;;3.42;;
13568;SDS011;6856;51.460;7.158;2023-06-10T01:26:34;6.10;;;3.78;;
13568;SDS011;6856;51.460;7.158;2023-06-10T01:29:11;4.13;;;3.72;;
13568;SDS011;6856;51.460;7.158;2023-06-10T01:31:55;4.75;;;3.70;;
13568;SDS011;6856;51.460;7.158;2023-06-10T01:34:39;4.40;;;3.85;;
13568;SDS011;6856;51.460;7.158;2023-06-10T01:37:19;4.07;;;3.58;;
13568;SDS011;6856;51.460;7.158;2023-06-10T01:39:56;4.40;;;3.65;;
13568;SDS011;6856;51.460;7.158;2023-06-10T01:42:37;5.05;;;3.97;;
13568;SDS011;6856;51.460;7.158;2023-06-10T01:45:11;4.80;;;3.97;;
13568;SDS011;6856;51.460;7.158;2023-06-10T01:47:45;4.22;;;3.55;;
13568;SDS011;6856;51.460;7.158;2023-06-10T01:50:21;6.45;;;4.30;;
13568;SDS011;6856;51.460;7.158;2023-06-10T01:52:59;6.88;;;3.78;;
13568;SDS011;6856;51.460;7.158;2023-06-10T01:55:35;4.93;;;3.95;;
13568;SDS011;6856;51.460;7.158;2023-06-10T01:58:09;4.55;;;3.63;;
13568;SDS011;6856;51.460;7.158;2023-06-10T02:00:43;4.32;;;3.78;;
13568;SDS011;6856;51.460;7.158;2023-06-10T02:03:17;5.25;;;4.07;;
13568;SDS011;6856;51.460;7.158;2023-06-10T02:05:52;5.32;;;4.47;;
13568;SDS011;6856;51.460;7.158;2023-06-10T02:08:27;4.95;;;3.78;;
13568;SDS011;6856;51.460;7.158;2023-06-10T02:11:03;4.93;;;4.00;;
13568;SDS011;6856;51.460;7.158;2023-06-10T02:13:39;4.35;;;3.75;;
13568;SDS011;6856;51.460;7.158;2023-06-10T02:16:13;4.45;;;3.97;;
13568;SDS011;6856;51.460;7.158;2023-06-10T02:18:48;5.20;;;3.60;;
13568;SDS011;6856;51.460;7.158;2023-06-10T02:21:22;4.90;;;3.95;;
13568;SDS011;6856;51.460;7.158;2023-06-10T02:23:58;4.95;;;4.05;;
13568;SDS011;6856;51.460;7.158;2023-06-10T02:26:32;5.07;;;4.32;;
13568;SDS011;6856;51.460;7.158;2023-06-10T02:29:06;4.63;;;3.95;;
13568;SDS011;6856;51.460;7.158;2023-06-10T02:31:40;4.72;;;4.22;;
13568;SDS011;6856;51.460;7.158;2023-06-10T02:34:14;5.20;;;4.40;;
13568;SDS011;6856;51.460;7.158;2023-06-10T02:36:48;6.25;;;4.28;;
13568;SDS011;6856;51.460;7.158;2023-06-10T02:39:24;4.85;;;3.78;;
13568;SDS011;6856;51.460;7.158;2023-06-10T02:41:59;4.70;;;4.05;;
13568;SDS011;6856;51.460;7.158;2023-06-10T02:44:34;5.47;;;4.30;;
13568;SDS011;6856;51.460;7.158;2023-06-10T02:47:09;5.13;;;4.63;;
13568;SDS011;6856;51.460;7.158;2023-06-10T02:49:44;5.15;;;4.47;;
13568;SDS011;6856;51.460;7.158;2023-06-10T02:52:18;5.15;;;4.40;;
13568;SDS011;6856;51.460;7.158;2023-06-10T02:54:53;4.20;;;3.80;;
13568;SDS011;6856;51.460;7.158;2023-06-10T02:57:27;6.35;;;4.60;;
13568;SDS011;6856;51.460;7.158;2023-06-10T03:00:00;5.15;;;4.13;;
13568;SDS011;6856;51.460;7.158;2023-06-10T03:02:43;4.80;;;4.30;;
13568;SDS011;6856;51.460;7.158;2023-06-10T03:05:17;5.53;;;4.05;;
13568;SDS011;6856;51.460;7.158;2023-06-10T03:07:51;5.35;;;4.70;;
13568;SDS011;6856;51.460;7.158;2023-06-10T03:10:27;5.00;;;4.40;;
13568;SDS011;6856;51.460;7.158;2023-06-10T03:13:01;5.43;;;4.50;;
13568;SDS011;6856;51.460;7.158;2023-06-10T03:15:35;5.75;;;4.85;;
13568;SDS011;6856;51.460;7.158;2023-06-10T03:18:10;5.28;;;4.63;;
13568;SDS011;6856;51.460;7.158;2023-06-10T03:20:44;5.45;;;4.38;;
13568;SDS011;6856;51.460;7.158;2023-06-10T03:23:19;5.72;;;4.68;;
13568;SDS011;6856;51.460;7.158;2023-06-10T03:25:59;5.20;;;4.53;;
13568;SDS011;6856;51.460;7.158;2023-06-10T03:28:33;4.50;;;3.92;;
13568;SDS011;6856;51.460;7.158;2023-06-10T03:31:07;5.97;;;4.80;;
13568;SDS011;6856;51.460;7.158;2023-06-10T03:33:43;6.30;;;4.80;;
13568;SDS011;6856;51.460;7.158;2023-06-10T03:36:16;5.53;;;4.78;;
13568;SDS011;6856;51.460;7.158;2023-06-10T03:38:51;5.18;;;4.40;;
13568;SDS011;6856;51.460;7.158;2023-06-10T03:41:27;5.07;;;4.60;;
13568;SDS011;6856;51.460;7.158;2023-06-10T03:44:04;4.93;;;4.43;;
13568;SDS011;6856;51.460;7.158;2023-06-10T03:46:37;4.88;;;4.28;;
13568;SDS011;6856;51.460;7.158;2023-06-10T03:49:16;6.18;;;4.75;;
13568;SDS011;6856;51.460;7.158;2023-06-10T03:51:50;5.82;;;4.72;;
13568;SDS011;6856;51.460;7.158;2023-06-10T03:54:26;5.38;;;4.88;;
13568;SDS011;6856;51.460;7.158;2023-06-10T03:57:02;7.05;;;5.07;;
13568;SDS011;6856;51.460;7.158;2023-06-10T03:59:37;5.35;;;4.82;;
13568;SDS011;6856;51.460;7.158;2023-06-10T04:02:12;5.72;;;5.13;;
13568;SDS011;6856;51.460;7.158;2023-06-10T04:04:46;6.70;;;5.95;;
13568;SDS011;6856;51.460;7.158;2023-06-10T04:07:22;5.95;;;5.25;;
13568;SDS011;6856;51.460;7.158;2023-06-10T04:09:57;5.03;;;4.53;;
13568;SDS011;6856;51.460;7.158;2023-06-10T04:12:33;7.65;;;5.93;;
13568;SDS011;6856;51.460;7.158;2023-06-10T04:15:07;5.53;;;5.03;;
13568;SDS011;6856;51.460;7.158;2023-06-10T04:17:42;5.93;;;5.35;;
13568;SDS011;6856;51.460;7.158;2023-06-10T04:20:16;5.93;;;5.35;;
13568;SDS011;6856;51.460;7.158;2023-06-10T04:22:49;5.35;;;4.78;;
13568;SDS011;6856;51.460;7.158;2023-06-10T04:25:23;6.28;;;5.68;;
13568;SDS011;6856;51.460;7.158;2023-06-10T04:28:01;6.50;;;5.90;;
13568;SDS011;6856;51.460;7.158;2023-06-10T04:30:36;7.10;;;6.13;;
13568;SDS011;6856;51.460;7.158;2023-06-10T04:33:11;7.07;;;5.95;;
13568;SDS011;6856;51.460;7.158;2023-06-10T04:35:45;7.57;;;5.75;;
13568;SDS011;6856;51.460;7.158;2023-06-10T04:38:19;6.75;;;5.30;;
13568;SDS011;6856;51.460;7.158;2023-06-10T04:40:55;5.82;;;4.95;;
13568;SDS011;6856;51.460;7.158;2023-06-10T04:43:32;6.00;;;5.40;;
13568;SDS011;6856;51.460;7.158;2023-06-10T04:46:08;6.20;;;5.60;;
13568;SDS011;6856;51.460;7.158;2023-06-10T04:48:43;6.38;;;5.13;;
13568;SDS011;6856;51.460;7.158;2023-06-10T04:51:19;6.40;;;5.47;;
13568;SDS011;6856;51.460;7.158;2023-06-10T04:53:55;6.05;;;5.43;;
13568;SDS011;6856;51.460;7.158;2023-06-10T04:56:29;5.78;;;5.18;;
13568;SDS011;6856;51.460;7.158;2023-06-10T04:59:05;5.47;;;4.93;;
13568;SDS011;6856;51.460;7.158;2023-06-10T05:01:39;5.93;;;5.32;;
13568;SDS011;6856;51.460;7.158;2023-06-10T05:04:17;6.07;;;5.00;;
13568;SDS011;6856;51.460;7.158;2023-06-10T05:06:51;6.05;;;5.32;;
13568;SDS011;6856;51.460;7.158;2023-06-10T05:09:25;5.32;;;4.72;;
13568;SDS011;6856;51.460;7.158;2023-06-10T05:11:59;5.00;;;4.50;;
13568;SDS011;6856;51.460;7.158;2023-06-10T05:14:35;5.88;;;5.28;;
13568;SDS011;6856;51.460;7.158;2023-06-10T05:17:10;6.13;;;4.53;;
13568;SDS011;6856;51.460;7.158;2023-06-10T05:19:45;5.40;;;4.63;;
13568;SDS011;6856;51.460;7.158;2023-06-10T05:22:19;6.13;;;4.93;;
13568;SDS011;6856;51.460;7.158;2023-06-10T05:24:57;4.88;;;4.28;;
13568;SDS011;6856;51.460;7.158;2023-06-10T05:27:31;5.95;;;4.20;;
13568;SDS011;6856;51.460;7.158;2023-06-10T05:30:08;4.95;;;4.10;;
13568;SDS011;6856;51.460;7.158;2023-06-10T05:32:44;5.85;;;4.43;;
13568;SDS011;6856;51.460;7.158;2023-06-10T05:35:18;4.97;;;4.25;;
13568;SDS011;6856;51.460;7.158;2023-06-10T05:37:55;5.05;;;4.40;;
13568;SDS011;6856;51.460;7.158;2023-06-10T05:40:33;6.80;;;4.72;;
13568;SDS011;6856;51.460;7.158;2023-06-10T05:43:08;5.65;;;4.47;;
13568;SDS011;6856;51.460;7.158;2023-06-10T05:45:44;4.32;;;3.72;;
13568;SDS011;6856;51.460;7.158;2023-06-10T05:48:18;5.00;;;4.50;;
13568;SDS011;6856;51.460;7.158;2023-06-10T05:50:52;5.10;;;4.05;;
13568;SDS011;6856;51.460;7.158;2023-06-10T05:53:28;5.45;;;4.70;;
13568;SDS011;6856;51.460;7.158;2023-06-10T05:56:01;5.15;;;4.47;;
13568;SDS011;6856;51.460;7.158;2023-06-10T05:58:38;5.25;;;4.18;;
13568;SDS011;6856;51.460;7.158;2023-06-10T06:01:13;6.47;;;4.53;;
13568;SDS011;6856;51.460;7.158;2023-06-10T06:03:47;5.25;;;4.15;;
13568;SDS011;6856;51.460;7.158;2023-06-10T06:06:21;5.40;;;3.88;;
13568;SDS011;6856;51.460;7.158;2023-06-10T06:08:56;5.07;;;4.20;;
13568;SDS011;6856;51.460;7.158;2023-06-10T06:11:31;4.57;;;4.05;;
13568;SDS011;6856;51.460;7.158;2023-06-10T06:14:06;6.13;;;4.38;;
13568;SDS011;6856;51.460;7.158;2023-06-10T06:16:44;5.05;;;3.80;;
13568;SDS011;6856;51.460;7.158;2023-06-10T06:19:18;6.05;;;4.15;;
13568;SDS011;6856;51.460;7.158;2023-06-10T06:21:52;5.60;;;3.83;;
13568;SDS011;6856;51.460;7.158;2023-06-10T06:24:28;4.90;;;4.03;;
13568;SDS011;6856;51.460;7.158;2023-06-10T06:27:07;4.82;;;3.83;;
13568;SDS011;6856;51.460;7.158;2023-06-10T06:29:44;5.15;;;4.00;;
13568;SDS011;6856;51.460;7.158;2023-06-10T06:32:20;4.43;;;3.60;;
13568;SDS011;6856;51.460;7.158;2023-06-10T06:34:57;4.20;;;3.58;;
13568;SDS011;6856;51.460;7.158;2023-06-10T06:37:35;4.53;;;3.65;;
13568;SDS011;6856;51.460;7.158;2023-06-10T06:40:10;6.55;;;4.07;;
13568;SDS011;6856;51.460;7.158;2023-06-10T06:42:45;4.72;;;3.83;;
13568;SDS011;6856;51.460;7.158;2023-06-10T06:45:24;4.40;;;3.78;;
13568;SDS011;6856;51.460;7.158;2023-06-10T06:48:00;4.97;;;3.70;;
13568;SDS011;6856;51.460;7.158;2023-06-10T06:50:39;4.65;;;3.35;;
13568;SDS011;6856;51.460;7.158;2023-06-10T06:53:13;4.85;;;3.78;;
13568;SDS011;6856;51.460;7.158;2023-06-10T06:55:49;6.43;;;4.00;;
13568;SDS011;6856;51.460;7.158;2023-06-10T06:58:23;4.68;;;3.60;;
13568;SDS011;6856;51.460;7.158;2023-06-10T07:00:58;4.43;;;3.80;;
13568;SDS011;6856;51.460;7.158;2023-06-10T07:03:37;5.07;;;3.78;;
13568;SDS011;6856;51.460;7.158;2023-06-10T07:06:12;5.55;;;3.83;;
13568;SDS011;6856;51.460;7.158;2023-06-10T07:08:48;3.95;;;3.42;;
13568;SDS011;6856;51.460;7.158;2023-06-10T07:11:22;4.57;;;3.38;;
13568;SDS011;6856;51.460;7.158;2023-06-10T07:13:59;4.30;;;3.90;;
13568;SDS011;6856;51.460;7.158;2023-06-10T07:16:33;5.38;;;3.80;;
13568;SDS011;6856;51.460;7.158;2023-06-10T07:19:09;3.95;;;3.22;;
13568;SDS011;6856;51.460;7.158;2023-06-10T07:21:43;5.05;;;3.72;;
13568;SDS011;6856;51.460;7.158;2023-06-10T07:24:18;4.60;;;3.63;;
13568;SDS011;6856;51.460;7.158;2023-06-10T07:26:53;4.43;;;3.50;;
13568;SDS011;6856;51.460;7.158;2023-06-10T07:29:27;6.88;;;3.70;;
13568;SDS011;6856;51.460;7.158;2023-06-10T07:32:01;4.70;;;3.33;;
13568;SDS011;6856;51.460;7.158;2023-06-10T07:34:38;5.60;;;3.97;;
13568;SDS011;6856;51.460;7.158;2023-06-10T07:37:12;4.97;;;3.28;;
13568;SDS011;6856;51.460;7.158;2023-06-10T07:39:46;4.30;;;3.25;;
13568;SDS011;6856;51.460;7.158;2023-06-10T07:42:20;4.28;;;3.50;;
13568;SDS011;6856;51.460;7.158;2023-06-10T07:44:54;4.60;;;3.47;;
13568;SDS011;6856;51.460;7.158;2023-06-10T07:47:28;4.85;;;3.25;;
13568;SDS011;6856;51.460;7.158;2023-06-10T07:50:05;4.18;;;3.40;;
13568;SDS011;6856;51.460;7.158;2023-06-10T07:52:41;5.85;;;3.75;;
13568;SDS011;6856;51.460;7.158;2023-06-10T07:55:14;5.57;;;3.17;;
13568;SDS011;6856;51.460;7.158;2023-06-10T07:57:49;3.78;;;3.22;;
13568;SDS011;6856;51.460;7.158;2023-06-10T08:00:23;3.88;;;3.10;;
13568;SDS011;6856;51.460;7.158;2023-06-10T08:02:58;5.18;;;3.60;;
13568;SDS011;6856;51.460;7.158;2023-06-10T08:05:34;3.95;;;3.20;;
13568;SDS011;6856;51.460;7.158;2023-06-10T08:08:09;3.88;;;3.10;;
13568;SDS011;6856;51.460;7.158;2023-06-10T08:10:42;7.72;;;3.58;;
13568;SDS011;6856;51.460;7.158;2023-06-10T08:13:16;3.65;;;2.67;;
13568;SDS011;6856;51.460;7.158;2023-06-10T08:15:50;4.38;;;3.35;;
13568;SDS011;6856;51.460;7.158;2023-06-10T08:18:26;4.72;;;3.20;;
13568;SDS011;6856;51.460;7.158;2023-06-10T08:21:01;4.47;;;3.13;;
13568;SDS011;6856;51.460;7.158;2023-06-10T08:23:37;3.92;;;2.90;;
13568;SDS011;6856;51.460;7.158;2023-06-10T08:26:12;6.35;;;3.22;;
13568;SDS011;6856;51.460;7.158;2023-06-10T08:28:48;4.43;;;3.53;;
13568;SDS011;6856;51.460;7.158;2023-06-10T08:31:24;4.15;;;3.30;;
13568;SDS011;6856;51.460;7.158;2023-06-10T08:34:00;4.10;;;3.15;;
13568;SDS011;6856;51.460;7.158;2023-06-10T08:36:35;4.65;;;3.10;;
13568;SDS011;6856;51.460;7.158;2023-06-10T08:39:09;5.13;;;3.53;;
13568;SDS011;6856;51.460;7.158;2023-06-10T08:41:43;4.13;;;3.28;;
13568;SDS011;6856;51.460;7.158;2023-06-10T08:44:29;4.57;;;3.70;;
13568;SDS011;6856;51.460;7.158;2023-06-10T08:47:07;3.55;;;2.90;;
13568;SDS011;6856;51.460;7.158;2023-06-10T08:49:47;3.42;;;2.75;;
13568;SDS011;6856;51.460;7.158;2023-06-10T08:52:23;3.80;;;3.08;;
13568;SDS011;6856;51.460;7.158;2023-06-10T08:55:08;4.28;;;3.03;;
13568;SDS011;6856;51.460;7.158;2023-06-10T08:57:45;4.60;;;3.13;;
13568;SDS011;6856;51.460;7.158;2023-06-10T09:00:19;3.97;;;2.78;;
13568;SDS011;6856;51.460;7.158;2023-06-10T09:02:55;4.80;;;3.40;;
13568;SDS011;6856;51.460;7.158;2023-06-10T09:05:33;3.88;;;2.88;;
13568;SDS011;6856;51.460;7.158;2023-06-10T09:08:09;4.68;;;3.20;;
13568;SDS011;6856;51.460;7.158;2023-06-10T09:10:44;3.75;;;2.92;;
13568;SDS011;6856;51.460;7.158;2023-06-10T09:13:18;7.32;;;3.50;;
13568;SDS011;6856;51.460;7.158;2023-06-10T09:15:52;3.28;;;2.95;;
13568;SDS011;6856;51.460;7.158;2023-06-10T09:18:28;3.38;;;2.70;;
13568;SDS011;6856;51.460;7.158;2023-06-10T09:21:05;4.40;;;2.80;;
13568;SDS011;6856;51.460;7.158;2023-06-10T09:23:42;5.30;;;3.40;;
13568;SDS011;6856;51.460;7.158;2023-06-10T09:26:18;3.90;;;3.10;;
13568;SDS011;6856;51.460;7.158;2023-06-10T09:28:54;3.83;;;3.03;;
13568;SDS011;6856;51.460;7.158;2023-06-10T09:31:38;4.20;;;3.10;;
13568;SDS011;6856;51.460;7.158;2023-06-10T09:34:14;4.72;;;3.28;;
13568;SDS011;6856;51.460;7.158;2023-06-10T09:36:50;3.58;;;2.58;;
13568;SDS011;6856;51.460;7.158;2023-06-10T09:39:25;4.13;;;3.10;;
13568;SDS011;6856;51.460;7.158;2023-06-10T09:41:59;3.92;;;3.05;;
13568;SDS011;6856;51.460;7.158;2023-06-10T09:44:33;4.03;;;3.13;;
13568;SDS011;6856;51.460;7.158;2023-06-10T09:47:07;4.10;;;3.45;;
13568;SDS011;6856;51.460;7.158;2023-06-10T09:49:43;3.65;;;2.90;;
13568;SDS011;6856;51.460;7.158;2023-06-10T09:52:20;4.65;;;3.15;;
13568;SDS011;6856;51.460;7.158;2023-06-10T09:55:03;3.83;;;3.15;;
13568;SDS011;6856;51.460;7.158;2023-06-10T09:57:41;7.05;;;3.50;;
13568;SDS011;6856;51.460;7.158;2023-06-10T10:00:21;4.03;;;3.33;;
13568;SDS011;6856;51.460;7.158;2023-06-10T10:02:59;3.95;;;3.10;;
13568;SDS011;6856;51.460;7.158;2023-06-10T10:05:33;3.83;;;3.10;;
13568;SDS011;6856;51.460;7.158;2023-06-10T10:08:08;4.35;;;3.15;;
13568;SDS011;6856;51.460;7.158;2023-06-10T10:10:43;4.00;;;3.20;;
13568;SDS011;6856;51.460;7.158;2023-06-10T10:13:17;4.80;;;3.40;;
13568;SDS011;6856;51.460;7.158;2023-06-10T10:15:53;3.65;;;3.13;;
13568;SDS011;6856;51.460;7.158;2023-06-10T10:18:36;3.97;;;3.03;;
13568;SDS011;6856;51.460;7.158;2023-06-10T10:21:15;3.75;;;3.40;;
13568;SDS011;6856;51.460;7.158;2023-06-10T10:23:58;5.20;;;3.45;;
13568;SDS011;6856;51.460;7.158;2023-06-10T10:26:43;4.05;;;2.95;;
13568;SDS011;6856;51.460;7.158;2023-06-10T10:29:22;4.63;;;3.38;;
13568;SDS011;6856;51.460;7.158;2023-06-10T10:32:03;3.50;;;3.03;;
13568;SDS011;6856;51.460;7.158;2023-06-10T10:34:43;5.47;;;3.72;;
13568;SDS011;6856;51.460;7.158;2023-06-10T10:37:23;3.75;;;3.38;;
13568;SDS011;6856;51.460;7.158;2023-06-10T10:39:59;4.38;;;3.15;;
13568;SDS011;6856;51.460;7.158;2023-06-10T10:42:38;3.95;;;3.13;;
13568;SDS011;6856;51.460;7.158;2023-06-10T10:45:21;4.10;;;3.45;;
13568;SDS011;6856;51.460;7.158;2023-06-10T10:47:55;3.42;;;3.13;;
13568;SDS011;6856;51.460;7.158;2023-06-10T10:50:31;5.32;;;3.65;;
13568;SDS011;6856;51.460;7.158;2023-06-10T10:53:06;4.20;;;3.45;;
13568;SDS011;6856;51.460;7.158;2023-06-10T10:55:42;3.72;;;3.25;;
13568;SDS011;6856;51.460;7.158;2023-06-10T10:58:33;4.20;;;3.58;;
13568;SDS011;6856;51.460;7.158;2023-06-10T11:01:11;4.65;;;3.35;;
13568;SDS011;6856;51.460;7.158;2023-06-10T11:03:46;3.63;;;3.08;;
13568;SDS011;6856;51.460;7.158;2023-06-10T11:06:22;4.78;;;3.35;;
13568;SDS011;6856;51.460;7.158;2023-06-10T11:08:56;3.97;;;3.53;;
13568;SDS011;6856;51.460;7.158;2023-06-10T11:11:35;3.83;;;3.38;;
13568;SDS011;6856;51.460;7.158;2023-06-10T11:14:27;3.97;;;3.58;;
13568;SDS011;6856;51.460;7.158;2023-06-10T11:17:03;4.25;;;3.85;;
13568;SDS011;6856;51.460;7.158;2023-06-10T11:19:52;4.75;;;3.78;;
13568;SDS011;6856;51.460;7.158;2023-06-10T11:22:26;5.03;;;3.92;;
13568;SDS011;6856;51.460;7.158;2023-06-10T11:25:01;4.57;;;4.07;;
13568;SDS011;6856;51.460;7.158;2023-06-10T11:27:37;5.40;;;3.80;;
13568;SDS011;6856;51.460;7.158;2023-06-10T11:30:21;3.95;;;3.53;;
13568;SDS011;6856;51.460;7.158;2023-06-10T11:32:58;3.95;;;3.55;;
13568;SDS011;6856;51.460;7.158;2023-06-10T11:35:33;4.25;;;3.50;;
13568;SDS011;6856;51.460;7.158;2023-06-10T11:38:07;7.18;;;3.85;;
13568;SDS011;6856;51.460;7.158;2023-06-10T11:40:45;4.38;;;3.97;;
13568;SDS011;6856;51.460;7.158;2023-06-10T11:43:21;4.47;;;3.97;;
13568;SDS011;6856;51.460;7.158;2023-06-10T11:45:58;4.00;;;3.60;;
13568;SDS011;6856;51.460;7.158;2023-06-10T11:48:33;4.20;;;3.80;;
13568;SDS011;6856;51.460;7.158;2023-06-10T11:51:08;6.50;;;4.15;;
13568;SDS011;6856;51.460;7.158;2023-06-10T11:53:43;4.32;;;3.92;;
13568;SDS011;6856;51.460;7.158;2023-06-10T11:56:19;4.00;;;3.60;;
13568;SDS011;6856;51.460;7.158;2023-06-10T11:58:54;4.47;;;3.65;;
13568;SDS011;6856;51.460;7.158;2023-06-10T12:01:32;6.20;;;4.28;;
13568;SDS011;6856;51.460;7.158;2023-06-10T12:04:14;4.18;;;3.78;;
13568;SDS011;6856;51.460;7.158;2023-06-10T12:06:51;4.60;;;3.80;;
13568;SDS011;6856;51.460;7.158;2023-06-10T12:09:27;4.15;;;3.30;;
13568;SDS011;6856;51.460;7.158;2023-06-10T12:12:05;4.13;;;3.72;;
13568;SDS011;6856;51.460;7.158;2023-06-10T12:17:38;5.10;;;3.83;;
13568;SDS011;6856;51.460;7.158;2023-06-10T12:20:23;4.78;;;4.00;;
13568;SDS011;6856;51.460;7.158;2023-06-10T12:22:59;4.57;;;3.80;;
13568;SDS011;6856;51.460;7.158;2023-06-10T12:25:49;5.03;;;3.72;;
13568;SDS011;6856;51.460;7.158;2023-06-10T12:28:25;4.93;;;3.67;;
13568;SDS011;6856;51.460;7.158;2023-06-10T12:31:06;4.68;;;4.15;;
13568;SDS011;6856;51.460;7.158;2023-06-10T12:33:42;4.10;;;3.70;;
13568;SDS011;6856;51.460;7.158;2023-06-10T12:36:17;3.97;;;3.58;;
13568;SDS011;6856;51.460;7.158;2023-06-10T12:38:53;4.20;;;3.80;;
13568;SDS011;6856;51.460;7.158;2023-06-10T12:41:36;4.15;;;3.75;;
13568;SDS011;6856;51.460;7.158;2023-06-10T12:44:14;4.70;;;3.80;;
13568;SDS011;6856;51.460;7.158;2023-06-10T12:46:53;4.22;;;3.80;;
13568;SDS011;6856;51.460;7.158;2023-06-10T12:49:31;4.50;;;4.10;;
13568;SDS011;6856;51.460;7.158;2023-06-10T12:52:05;4.18;;;3.78;;
13568;SDS011;6856;51.460;7.158;2023-06-10T12:54:40;7.10;;;3.75;;
13568;SDS011;6856;51.460;7.158;2023-06-10T12:57:14;4.85;;;3.88;;
13568;SDS011;6856;51.460;7.158;2023-06-10T12:59:48;5.63;;;4.43;;
13568;SDS011;6856;51.460;7.158;2023-06-10T13:02:24;5.13;;;3.92;;
13568;SDS011;6856;51.460;7.158;2023-06-10T13:05:00;5.32;;;4.03;;
13568;SDS011;6856;51.460;7.158;2023-06-10T13:07:34;4.47;;;3.55;;
13568;SDS011;6856;51.460;7.158;2023-06-10T13:10:08;4.20;;;3.80;;
13568;SDS011;6856;51.460;7.158;2023-06-10T13:12:43;8.35;;;4.13;;
13568;SDS011;6856;51.460;7.158;2023-06-10T13:15:19;4.07;;;3.67;;
13568;SDS011;6856;51.460;7.158;2023-06-10T13:17:53;4.13;;;3.72;;
13568;SDS011;6856;51.460;7.158;2023-06-10T13:20:29;4.63;;;4.22;;
13568;SDS011;6856;51.460;7.158;2023-06-10T13:23:07;4.20;;;3.53;;
13568;SDS011;6856;51.460;7.158;2023-06-10T13:25:42;3.75;;;3.38;;
13568;SDS011;6856;51.460;7.158;2023-06-10T13:28:16;3.97;;;3.63;;
13568;SDS011;6856;51.460;7.158;2023-06-10T13:30:51;4.82;;;3.95;;
13568;SDS011;6856;51.460;7.158;2023-06-10T13:33:25;4.57;;;4.05;;
13568;SDS011;6856;51.460;7.158;2023-06-10T13:36:00;4.47;;;4.00;;
13568;SDS011;6856;51.460;7.158;2023-06-10T13:38:34;6.35;;;4.22;;
13568;SDS011;6856;51.460;7.158;2023-06-10T13:41:07;3.78;;;3.47;;
13568;SDS011;6856;51.460;7.158;2023-06-10T13:43:41;4.18;;;3.58;;
13568;SDS011;6856;51.460;7.158;2023-06-10T13:46:15;4.90;;;3.83;;
13568;SDS011;6856;51.460;7.158;2023-06-10T13:48:50;4.38;;;3.95;;
13568;SDS011;6856;51.460;7.158;2023-06-10T13:51:25;3.95;;;3.50;;
13568;SDS011;6856;51.460;7.158;2023-06-10T13:53:59;4.45;;;4.05;;
13568;SDS011;6856;51.460;7.158;2023-06-10T13:56:33;4.10;;;3.70;;
13568;SDS011;6856;51.460;7.158;2023-06-10T13:59:10;3.70;;;3.40;;
13568;SDS011;6856;51.460;7.158;2023-06-10T14:01:44;4.70;;;4.30;;
13568;SDS011;6856;51.460;7.158;2023-06-10T14:04:18;4.50;;;4.00;;
13568;SDS011;6856;51.460;7.158;2023-06-10T14:06:54;4.10;;;3.70;;
13568;SDS011;6856;51.460;7.158;2023-06-10T14:09:30;4.30;;;3.88;;
13568;SDS011;6856;51.460;7.158;2023-06-10T14:12:04;4.57;;;4.07;;
13568;SDS011;6856;51.460;7.158;2023-06-10T14:14:40;4.93;;;3.95;;
13568;SDS011;6856;51.460;7.158;2023-06-10T14:17:14;4.97;;;4.00;;
13568;SDS011;6856;51.460;7.158;2023-06-10T14:19:48;4.25;;;3.80;;
13568;SDS011;6856;51.460;7.158;2023-06-10T14:22:23;4.95;;;3.95;;
13568;SDS011;6856;51.460;7.158;2023-06-10T14:24:57;4.22;;;3.83;;
13568;SDS011;6856;51.460;7.158;2023-06-10T14:27:31;4.05;;;3.65;;
13568;SDS011;6856;51.460;7.158;2023-06-10T14:30:07;4.63;;;4.13;;
13568;SDS011;6856;51.460;7.158;2023-06-10T14:32:41;5.13;;;4.15;;
13568;SDS011;6856;51.460;7.158;2023-06-10T14:35:15;4.63;;;4.05;;
13568;SDS011;6856;51.460;7.158;2023-06-10T14:37:51;4.50;;;3.55;;
13568;SDS011;6856;51.460;7.158;2023-06-10T14:40:25;4.25;;;3.40;;
13568;SDS011;6856;51.460;7.158;2023-06-10T14:43:00;5.82;;;3.67;;
13568;SDS011;6856;51.460;7.158;2023-06-10T14:45:42;3.85;;;3.50;;
13568;SDS011;6856;51.460;7.158;2023-06-10T14:48:16;4.95;;;3.80;;
13568;SDS011;6856;51.460;7.158;2023-06-10T14:50:50;3.92;;;3.63;;
13568;SDS011;6856;51.460;7.158;2023-06-10T14:53:28;4.70;;;4.05;;
13568;SDS011;6856;51.460;7.158;2023-06-10T14:56:02;3.97;;;3.50;;
13568;SDS011;6856;51.460;7.158;2023-06-10T14:58:38;4.07;;;3.65;;
13568;SDS011;6856;51.460;7.158;2023-06-10T15:01:11;3.88;;;3.50;;
13568;SDS011;6856;51.460;7.158;2023-06-10T15:03:47;4.00;;;3.60;;
13568;SDS011;6856;51.460;7.158;2023-06-10T15:06:21;4.15;;;3.72;;
13568;SDS011;6856;51.460;7.158;2023-06-10T15:08:57;3.90;;;3.58;;
13568;SDS011;6856;51.460;7.158;2023-06-10T15:11:30;4.22;;;3.50;;
13568;SDS011;6856;51.460;7.158;2023-06-10T15:14:04;4.63;;;3.88;;
13568;SDS011;6856;51.460;7.158;2023-06-10T15:16:38;3.70;;;3.40;;
13568;SDS011;6856;51.460;7.158;2023-06-10T15:19:13;4.15;;;3.53;;
13568;SDS011;6856;51.460;7.158;2023-06-10T15:21:47;4.05;;;3.60;;
13568;SDS011;6856;51.460;7.158;2023-06-10T15:24:26;4.20;;;3.78;;
13568;SDS011;6856;51.460;7.158;2023-06-10T15:27:00;3.78;;;3.05;;
13568;SDS011;6856;51.460;7.158;2023-06-10T15:29:34;4.60;;;3.90;;
13568;SDS011;6856;51.460;7.158;2023-06-10T15:32:08;4.05;;;3.65;;
13568;SDS011;6856;51.460;7.158;2023-06-10T15:34:49;4.25;;;3.72;;
13568;SDS011;6856;51.460;7.158;2023-06-10T15:37:25;3.78;;;3.38;;
13568;SDS011;6856;51.460;7.158;2023-06-10T15:40:01;3.50;;;3.08;;
13568;SDS011;6856;51.460;7.158;2023-06-10T15:42:35;4.57;;;3.55;;
13568;SDS011;6856;51.460;7.158;2023-06-10T15:45:10;4.95;;;4.00;;
13568;SDS011;6856;51.460;7.158;2023-06-10T15:47:44;4.43;;;3.33;;
13568;SDS011;6856;51.460;7.158;2023-06-10T15:50:19;4.57;;;3.70;;
13568;SDS011;6856;51.460;7.158;2023-06-10T15:52:58;3.70;;;3.20;;
13568;SDS011;6856;51.460;7.158;2023-06-10T15:55:34;5.50;;;3.78;;